createdAt,value
2022-10-14T00:01:33.009Z,20.75
2022-10-14T00:04:00.351Z,20.38
2022-10-14T00:06:30.493Z,19.60
2022-10-14T00:09:00.407Z,20.00
2022-10-14T00:11:31.395Z,19.67
2022-10-14T00:14:02.201Z,20.63
2022-10-14T00:16:33.729Z,21.02
2022-10-14T00:19:01.440Z,22.05
2022-10-14T00:21:28.998Z,21.98
2022-10-14T00:23:56.886Z,21.33
2022-10-14T00:26:26.119Z,21.17
2022-10-14T00:28:53.446Z,20.88
2022-10-14T00:31:20.865Z,21.23
2022-10-14T00:33:48.225Z,22.98
2022-10-14T00:36:17.180Z,21.75
2022-10-14T00:38:45.479Z,20.65
2022-10-14T00:41:16.972Z,21.48
2022-10-14T00:44:07.894Z,22.13
2022-10-14T00:46:36.928Z,20.63
2022-10-14T00:49:15.863Z,22.40
2022-10-14T00:51:47.899Z,18.40
2022-10-14T00:54:17.946Z,20.30
2022-10-14T00:56:49.320Z,19.30
2022-10-14T00:59:16.555Z,20.85
2022-10-14T01:01:43.248Z,21.05
2022-10-14T01:04:09.834Z,21.50
2022-10-14T01:06:44.217Z,21.35
2022-10-14T01:09:26.023Z,22.90
2022-10-14T01:12:28.044Z,20.63
2022-10-14T01:15:11.520Z,19.15
2022-10-14T01:18:00.226Z,20.40
2022-10-14T01:20:58.393Z,21.08
2022-10-14T01:23:38.311Z,20.95
2022-10-14T01:26:23.366Z,23.70
2022-10-14T01:29:28.060Z,23.45
2022-10-14T01:32:03.993Z,20.95
2022-10-14T01:34:37.830Z,22.65
2022-10-14T01:37:12.582Z,22.30
2022-10-14T01:39:44.779Z,22.10
2022-10-14T01:42:16.340Z,22.90
2022-10-14T01:44:47.495Z,22.13
2022-10-14T01:47:18.516Z,21.95
2022-10-14T01:49:52.980Z,22.55
2022-10-14T01:52:27.476Z,21.13
2022-10-14T01:54:59.850Z,21.25
2022-10-14T01:57:29.980Z,21.20
2022-10-14T01:59:58.426Z,23.02
2022-10-14T02:02:25.657Z,22.02
2022-10-14T02:04:52.628Z,21.58
2022-10-14T02:07:33.195Z,21.17
2022-10-14T02:10:14.600Z,22.15
2022-10-14T02:12:57.656Z,23.30
2022-10-14T02:15:34.548Z,24.27
2022-10-14T02:18:17.807Z,23.08
2022-10-14T02:20:54.636Z,22.05
2022-10-14T02:23:26.468Z,22.10
2022-10-14T02:25:54.938Z,22.95
2022-10-14T02:28:25.524Z,23.70
2022-10-14T02:30:57.828Z,24.83
2022-10-14T02:33:31.088Z,22.38
2022-10-14T02:35:58.021Z,21.00
2022-10-14T02:38:25.895Z,20.38
2022-10-14T02:40:53.015Z,27.80
2022-10-14T02:43:19.976Z,27.08
2022-10-14T02:45:46.605Z,26.38
2022-10-14T02:48:13.527Z,26.10
2022-10-14T02:50:41.485Z,27.17
2022-10-14T02:53:08.330Z,27.35
2022-10-14T02:55:35.180Z,27.33
2022-10-14T02:58:01.863Z,28.63
2022-10-14T03:00:28.582Z,30.67
2022-10-14T03:02:55.239Z,29.52
2022-10-14T03:05:21.847Z,28.40
2022-10-14T03:07:48.484Z,28.00
2022-10-14T03:10:15.459Z,27.95
2022-10-14T03:12:42.041Z,26.10
2022-10-14T03:15:09.455Z,27.00
2022-10-14T03:17:36.499Z,29.50
2022-10-14T03:20:05.392Z,29.77
2022-10-14T03:22:32.213Z,29.30
2022-10-14T03:24:59.094Z,32.28
2022-10-14T03:27:25.926Z,32.38
2022-10-14T03:29:52.554Z,28.73
2022-10-14T03:32:19.523Z,24.63
2022-10-14T03:34:46.356Z,22.65
2022-10-14T03:37:12.981Z,22.98
2022-10-14T03:39:39.664Z,21.92
2022-10-14T03:42:06.384Z,23.33
2022-10-14T03:44:33.035Z,23.52
2022-10-14T03:46:59.680Z,25.10
2022-10-14T03:49:26.378Z,24.33
2022-10-14T03:51:53.041Z,24.55
2022-10-14T03:54:19.655Z,30.02
2022-10-14T03:56:46.319Z,28.77
2022-10-14T03:59:12.925Z,30.70
2022-10-14T04:01:39.590Z,31.90
2022-10-14T04:04:06.411Z,33.65
2022-10-14T04:06:33.047Z,34.42
2022-10-14T04:08:59.708Z,33.15
2022-10-14T04:11:26.405Z,32.47
2022-10-14T04:13:53.027Z,34.00
2022-10-14T04:16:20.359Z,33.83
2022-10-14T04:18:47.029Z,32.40
2022-10-14T04:21:13.736Z,32.47
2022-10-14T04:23:40.348Z,33.30
2022-10-14T04:26:08.534Z,31.83
2022-10-14T04:28:35.608Z,31.55
2022-10-14T04:31:02.512Z,31.67
2022-10-14T04:33:29.222Z,33.25
2022-10-14T04:36:00.396Z,33.00
2022-10-14T04:38:27.580Z,32.83
2022-10-14T04:40:55.098Z,32.03
2022-10-14T04:43:22.030Z,32.38
2022-10-14T04:45:49.485Z,33.42
2022-10-14T04:48:17.259Z,31.95
2022-10-14T04:50:44.192Z,30.95
2022-10-14T04:53:13.767Z,31.15
2022-10-14T04:55:41.096Z,37.40
2022-10-14T04:58:11.164Z,44.28
2022-10-14T05:00:37.823Z,36.90
2022-10-14T05:03:05.070Z,33.78
2022-10-14T05:05:31.735Z,33.95
2022-10-14T05:07:58.444Z,33.15
2022-10-14T05:10:25.131Z,34.95
2022-10-14T05:12:55.034Z,35.45
2022-10-14T05:15:21.987Z,32.25
2022-10-14T05:17:48.597Z,33.55
2022-10-14T05:20:15.247Z,32.08
2022-10-14T05:22:45.250Z,30.10
2022-10-14T05:25:12.097Z,32.17
2022-10-14T05:27:38.976Z,34.03
2022-10-14T05:30:06.113Z,34.42
2022-10-14T05:32:33.411Z,31.13
2022-10-14T05:35:00.014Z,30.05
2022-10-14T05:37:26.898Z,28.92
2022-10-14T05:39:55.171Z,27.65
2022-10-14T05:42:22.414Z,26.52
2022-10-14T05:44:49.304Z,27.20
2022-10-14T05:47:15.954Z,26.50
2022-10-14T05:49:42.858Z,30.27
2022-10-14T05:52:09.516Z,30.88
2022-10-14T05:54:36.103Z,30.08
2022-10-14T05:57:02.829Z,29.42
2022-10-14T05:59:29.952Z,28.25
2022-10-14T06:01:57.106Z,27.60
2022-10-14T06:04:23.755Z,26.63
2022-10-14T06:06:50.452Z,27.85
2022-10-14T06:09:17.664Z,26.73
2022-10-14T06:11:44.559Z,27.58
2022-10-14T06:14:11.263Z,28.48
2022-10-14T06:16:37.955Z,26.63
2022-10-14T06:19:04.670Z,25.08
2022-10-14T06:21:31.294Z,27.98
2022-10-14T06:23:57.895Z,25.80
2022-10-14T06:26:24.512Z,26.65
2022-10-14T06:28:51.175Z,27.00
2022-10-14T06:31:17.884Z,27.10
2022-10-14T06:33:45.128Z,27.73
2022-10-14T06:36:12.162Z,29.77
2022-10-14T06:38:38.898Z,26.65
2022-10-14T06:41:05.708Z,26.63
2022-10-14T06:43:32.868Z,26.98
2022-10-14T06:45:59.661Z,29.00
2022-10-14T06:48:26.634Z,29.08
2022-10-14T06:50:53.763Z,28.30
2022-10-14T06:53:21.127Z,29.20
2022-10-14T06:55:47.773Z,31.10
2022-10-14T06:58:14.490Z,27.52
2022-10-14T07:00:44.391Z,31.13
2022-10-14T07:03:15.463Z,30.30
2022-10-14T07:05:42.044Z,30.77
2022-10-14T07:08:11.366Z,31.40
2022-10-14T07:10:41.110Z,29.15
2022-10-14T07:13:07.737Z,28.35
2022-10-14T07:15:36.349Z,29.00
2022-10-14T07:18:04.530Z,28.70
2022-10-14T07:20:31.145Z,27.20
2022-10-14T07:22:57.782Z,26.52
2022-10-14T07:25:24.567Z,28.90
2022-10-14T07:27:53.275Z,29.45
2022-10-14T07:30:20.260Z,28.35
2022-10-14T07:32:47.020Z,28.73
2022-10-14T07:35:13.736Z,29.23
2022-10-14T07:37:40.655Z,29.35
2022-10-14T07:40:08.291Z,29.73
2022-10-14T07:42:34.884Z,28.58
2022-10-14T07:45:01.802Z,28.75
2022-10-14T07:47:28.473Z,27.38
2022-10-14T07:49:55.106Z,28.55
2022-10-14T07:52:21.733Z,28.23
2022-10-14T07:54:49.503Z,29.00
2022-10-14T07:57:16.785Z,29.17
2022-10-14T07:59:43.435Z,29.33
2022-10-14T08:02:11.679Z,28.55
2022-10-14T08:04:38.564Z,29.67
2022-10-14T08:07:05.406Z,28.88
2022-10-14T08:09:35.972Z,29.60
2022-10-14T08:12:02.746Z,28.52
2022-10-14T08:14:29.478Z,29.90
2022-10-14T08:16:56.110Z,29.33
2022-10-14T08:19:23.122Z,33.38
2022-10-14T08:21:49.832Z,32.22
2022-10-14T08:24:16.449Z,34.85
2022-10-14T08:26:52.753Z,36.25
2022-10-14T08:31:46.469Z,35.63
2022-10-14T08:34:13.143Z,35.45
2022-10-14T08:36:39.888Z,34.08
2022-10-14T08:39:07.363Z,31.27
2022-10-14T08:41:49.317Z,33.33
2022-10-14T08:44:23.039Z,30.77
2022-10-14T08:47:00.522Z,30.52
2022-10-14T08:49:29.163Z,30.88
2022-10-14T08:52:03.317Z,30.38
2022-10-14T08:54:35.185Z,27.73
2022-10-14T08:57:04.474Z,26.23
2022-10-14T08:59:40.392Z,26.92
2022-10-14T09:02:34.005Z,25.85
2022-10-14T09:05:02.197Z,24.25
2022-10-14T09:07:31.801Z,25.05
2022-10-14T09:10:03.658Z,22.67
2022-10-14T09:12:33.252Z,22.02
2022-10-14T09:15:19.759Z,22.17
2022-10-14T09:17:57.197Z,22.70
2022-10-14T09:20:25.635Z,23.77
2022-10-14T09:23:05.299Z,23.75
2022-10-14T09:25:35.051Z,20.90
2022-10-14T09:28:02.220Z,21.15
2022-10-14T09:30:35.647Z,21.75
2022-10-14T09:33:04.723Z,19.10
2022-10-14T09:35:35.377Z,19.88
2022-10-14T09:38:02.089Z,18.63
2022-10-14T09:40:35.185Z,19.58
2022-10-14T09:43:18.785Z,18.98
2022-10-14T09:46:07.951Z,18.65
2022-10-14T09:48:44.603Z,19.45
2022-10-14T09:51:19.647Z,18.67
2022-10-14T09:53:51.969Z,19.77
2022-10-14T09:56:29.436Z,18.70
2022-10-14T09:58:58.212Z,19.58
2022-10-14T10:01:27.646Z,18.63
2022-10-14T10:03:55.746Z,18.33
2022-10-14T10:06:26.502Z,17.58
2022-10-14T10:08:53.024Z,17.20
2022-10-14T10:11:33.538Z,16.00
2022-10-14T10:14:19.001Z,14.68
2022-10-14T10:16:45.723Z,15.82
2022-10-14T10:19:28.866Z,14.90
2022-10-14T10:22:14.879Z,15.88
2022-10-14T10:24:41.583Z,14.82
2022-10-14T10:27:25.838Z,13.43
2022-10-14T10:29:55.838Z,12.65
2022-10-14T10:32:30.247Z,12.32
2022-10-14T10:35:12.454Z,12.43
2022-10-14T10:38:02.325Z,12.88
2022-10-14T10:40:39.157Z,12.82
2022-10-14T10:43:06.877Z,13.90
2022-10-14T10:45:53.492Z,12.55
2022-10-14T10:51:05.484Z,12.57
2022-10-14T10:53:49.753Z,11.60
2022-10-14T10:56:38.757Z,11.10
2022-10-14T10:59:39.197Z,9.95
2022-10-14T11:02:41.039Z,10.60
2022-10-14T11:05:23.480Z,9.63
2022-10-14T11:08:14.705Z,10.57
2022-10-14T11:11:36.441Z,10.80
2022-10-14T11:14:16.008Z,7.88
2022-10-14T11:17:03.246Z,7.13
2022-10-14T11:19:40.897Z,6.82
2022-10-14T11:22:34.554Z,6.55
2022-10-14T11:25:07.951Z,7.50
2022-10-14T11:27:43.696Z,5.47
2022-10-14T11:30:16.176Z,5.63
2022-10-14T11:32:42.818Z,6.28
2022-10-14T11:35:19.399Z,5.80
2022-10-14T11:38:21.699Z,5.97
2022-10-14T11:41:03.631Z,5.95
2022-10-14T11:43:39.480Z,6.05
2022-10-14T11:46:08.965Z,6.38
2022-10-14T11:48:59.053Z,6.05
2022-10-14T11:51:36.292Z,6.00
2022-10-14T11:54:05.754Z,6.25
2022-10-14T11:56:43.519Z,5.95
2022-10-14T11:59:49.697Z,6.30
2022-10-14T12:02:21.895Z,7.25
2022-10-14T12:04:57.654Z,6.90
2022-10-14T12:07:31.762Z,6.43
2022-10-14T12:10:03.103Z,6.30
2022-10-14T12:12:32.388Z,6.57
2022-10-14T12:15:04.356Z,6.22
2022-10-14T12:17:46.320Z,5.78
2022-10-14T12:20:22.326Z,6.00
2022-10-14T12:22:50.407Z,6.50
2022-10-14T12:25:20.428Z,6.35
2022-10-14T12:27:48.365Z,5.45
2022-10-14T12:30:47.374Z,5.60
2022-10-14T12:33:22.406Z,5.00
2022-10-14T12:36:00.893Z,4.97
2022-10-14T12:38:29.566Z,4.95
2022-10-14T12:41:32.246Z,4.60
2022-10-14T12:44:01.842Z,4.43
2022-10-14T12:46:28.477Z,4.63
2022-10-14T12:48:55.129Z,4.88
2022-10-14T12:51:24.367Z,5.32
2022-10-14T12:54:12.366Z,4.97
2022-10-14T12:56:44.687Z,5.45
2022-10-14T12:59:25.503Z,4.90
2022-10-14T13:02:00.390Z,5.57
2022-10-14T13:04:28.648Z,4.82
2022-10-14T13:07:46.584Z,4.80
2022-10-14T13:10:49.780Z,4.78
2022-10-14T13:13:49.402Z,4.63
2022-10-14T13:16:19.176Z,4.05
2022-10-14T13:18:45.763Z,4.20
2022-10-14T13:21:52.764Z,3.90
2022-10-14T13:24:30.454Z,4.55
2022-10-14T13:27:01.117Z,4.75
2022-10-14T13:30:02.643Z,4.35
2022-10-14T13:32:44.424Z,3.63
2022-10-14T13:35:34.739Z,3.83
2022-10-14T13:38:07.310Z,4.22
2022-10-14T13:40:38.668Z,3.67
2022-10-14T13:43:13.715Z,3.70
2022-10-14T13:45:50.723Z,3.92
2022-10-14T13:48:30.736Z,3.95
2022-10-14T13:51:37.101Z,3.13
2022-10-14T13:54:22.194Z,3.10
2022-10-14T13:57:42.552Z,3.75
2022-10-14T14:05:19.222Z,3.22
2022-10-14T14:10:39.197Z,3.53
2022-10-14T14:13:14.059Z,3.28
2022-10-14T14:15:40.963Z,2.97
2022-10-14T14:18:30.443Z,3.70
2022-10-14T14:21:04.974Z,3.35
2022-10-14T14:23:31.605Z,3.53
2022-10-14T14:26:18.473Z,3.45
2022-10-14T14:28:48.281Z,4.13
2022-10-14T14:31:19.165Z,5.90
2022-10-14T14:33:46.719Z,4.20
2022-10-14T14:36:27.550Z,3.58
2022-10-14T14:38:57.896Z,4.05
2022-10-14T14:41:26.917Z,3.45
2022-10-14T14:44:23.947Z,3.65
2022-10-14T14:46:45.507Z,3.92
2022-10-14T14:49:17.030Z,6.90
2022-10-14T14:51:44.487Z,7.32
2022-10-14T14:54:22.493Z,9.55
2022-10-14T14:57:04.690Z,11.20
2022-10-14T14:59:35.548Z,10.45
2022-10-14T15:02:04.977Z,9.50
2022-10-14T15:04:34.941Z,11.38
2022-10-14T15:07:18.700Z,15.07
2022-10-14T15:09:52.235Z,17.02
2022-10-14T15:12:22.121Z,18.85
2022-10-14T15:14:51.177Z,18.33
2022-10-14T15:17:34.234Z,18.20
2022-10-14T15:20:28.986Z,17.45
2022-10-14T15:22:55.699Z,18.20
2022-10-14T15:25:23.371Z,17.60
2022-10-14T15:27:55.016Z,17.90
2022-10-14T15:30:31.993Z,15.70
2022-10-14T15:33:15.466Z,15.73
2022-10-14T15:35:43.561Z,15.85
2022-10-14T15:38:16.645Z,16.00
2022-10-14T15:40:44.759Z,15.50
2022-10-14T15:43:17.620Z,17.23
2022-10-14T15:45:46.346Z,17.25
2022-10-14T15:48:19.976Z,15.23
2022-10-14T15:50:48.111Z,14.20
2022-10-14T15:53:17.273Z,15.00
2022-10-14T15:55:44.169Z,14.82
2022-10-14T15:58:10.774Z,14.18
2022-10-14T16:00:37.475Z,14.85
2022-10-14T16:03:04.251Z,14.90
2022-10-14T16:05:30.977Z,14.05
2022-10-14T16:07:57.799Z,13.15
2022-10-14T16:10:26.455Z,14.25
2022-10-14T16:12:54.692Z,15.60
2022-10-14T16:15:51.874Z,14.48
2022-10-14T16:20:46.360Z,15.73
2022-10-14T16:23:18.584Z,14.88
2022-10-14T16:25:46.868Z,15.05
2022-10-14T16:28:13.954Z,15.18
2022-10-14T16:30:44.085Z,13.32
2022-10-14T16:35:38.407Z,13.43
2022-10-14T16:38:04.989Z,13.38
2022-10-14T16:40:36.567Z,12.93
2022-10-14T16:43:04.276Z,13.57
2022-10-14T16:45:30.958Z,12.98
2022-10-14T16:47:57.571Z,12.95
2022-10-14T16:50:24.430Z,12.65
2022-10-14T16:53:06.338Z,12.82
2022-10-14T16:55:33.387Z,13.48
2022-10-14T16:58:00.013Z,13.00
2022-10-14T17:00:26.614Z,14.13
2022-10-14T17:02:56.386Z,14.57
2022-10-14T17:05:23.006Z,12.38
2022-10-14T17:07:49.650Z,12.43
2022-10-14T17:10:16.810Z,12.65
2022-10-14T17:12:43.462Z,13.82
2022-10-14T17:15:10.518Z,13.38
2022-10-14T17:17:40.456Z,13.35
2022-10-14T17:20:09.376Z,14.05
2022-10-14T17:22:36.125Z,13.98
2022-10-14T17:25:02.853Z,12.93
2022-10-14T17:27:29.426Z,14.40
2022-10-14T17:29:56.083Z,14.45
2022-10-14T17:32:22.840Z,13.90
2022-10-14T17:34:53.317Z,13.88
2022-10-14T17:37:20.688Z,13.85
2022-10-14T17:39:47.292Z,14.05
2022-10-14T17:42:13.911Z,12.68
2022-10-14T17:44:43.807Z,14.25
2022-10-14T17:47:10.971Z,13.77
2022-10-14T17:49:37.582Z,13.95
2022-10-14T17:52:06.198Z,15.65
2022-10-14T17:54:32.843Z,12.93
2022-10-14T17:56:59.471Z,13.13
2022-10-14T17:59:26.128Z,12.98
2022-10-14T18:02:08.106Z,13.10
2022-10-14T18:04:34.856Z,12.55
2022-10-14T18:07:01.657Z,12.38
2022-10-14T18:09:29.672Z,12.20
2022-10-14T18:12:13.119Z,14.15
2022-10-14T18:14:40.673Z,12.88
2022-10-14T18:17:10.686Z,13.20
2022-10-14T18:19:37.414Z,12.60
2022-10-14T18:22:04.234Z,12.88
2022-10-14T18:24:30.890Z,12.98
2022-10-14T18:26:57.459Z,12.52
2022-10-14T18:29:24.713Z,15.85
2022-10-14T18:34:19.074Z,15.68
2022-10-14T18:36:47.818Z,14.20
2022-10-14T18:39:15.461Z,14.05
2022-10-14T18:41:43.898Z,14.75
2022-10-14T18:44:10.613Z,15.13
2022-10-14T18:46:39.382Z,13.63
2022-10-14T18:49:08.712Z,13.63
2022-10-14T18:51:37.946Z,13.15
2022-10-14T18:54:07.805Z,12.27
2022-10-14T18:56:38.718Z,12.02
2022-10-14T18:59:09.127Z,11.77
2022-10-14T19:01:37.850Z,12.20
2022-10-14T19:04:06.661Z,11.93
2022-10-14T19:06:34.763Z,12.57
2022-10-14T19:09:02.000Z,12.00
2022-10-14T19:11:29.611Z,12.40
2022-10-14T19:13:58.274Z,12.80
2022-10-14T19:16:33.639Z,12.75
2022-10-14T19:19:04.588Z,13.07
2022-10-14T19:21:31.767Z,12.85
2022-10-14T19:23:59.043Z,13.45
2022-10-14T19:26:30.962Z,12.85
2022-10-14T19:29:01.543Z,11.80
2022-10-14T19:31:30.927Z,11.50
2022-10-14T19:33:59.792Z,12.10
2022-10-14T19:36:26.467Z,11.18
2022-10-14T19:38:57.981Z,12.27
2022-10-14T19:41:28.186Z,12.30
2022-10-14T19:43:56.955Z,11.43
2022-10-14T19:46:27.603Z,11.98
2022-10-14T19:48:57.468Z,11.85
2022-10-14T19:51:25.171Z,11.50
2022-10-14T19:53:53.832Z,12.27
2022-10-14T19:56:20.769Z,13.02
2022-10-14T19:58:51.919Z,13.73
2022-10-14T20:01:19.993Z,13.77
2022-10-14T20:03:47.141Z,12.55
2022-10-14T20:06:14.044Z,13.80
2022-10-14T20:08:41.211Z,13.43
2022-10-14T20:11:10.090Z,13.20
2022-10-14T20:13:37.703Z,13.05
2022-10-14T20:16:06.582Z,12.40
2022-10-14T20:18:33.462Z,12.35
2022-10-14T20:21:02.704Z,12.65
2022-10-14T20:23:32.433Z,12.52
2022-10-14T20:26:00.566Z,12.82
2022-10-14T20:28:27.163Z,11.27
2022-10-14T20:30:54.328Z,12.35
2022-10-14T20:33:21.054Z,11.25
2022-10-14T20:35:47.680Z,12.57
2022-10-14T20:38:14.373Z,11.38
2022-10-14T20:40:41.003Z,11.00
2022-10-14T20:43:07.580Z,11.60
2022-10-14T20:45:34.292Z,10.57
2022-10-14T20:48:01.099Z,10.60
2022-10-14T20:50:27.714Z,11.50
2022-10-14T20:52:54.290Z,11.13
2022-10-14T20:55:20.907Z,11.90
2022-10-14T20:57:49.903Z,11.00
2022-10-14T21:00:16.738Z,11.73
2022-10-14T21:05:19.240Z,11.88
2022-10-14T21:07:45.922Z,10.68
2022-10-14T21:10:12.546Z,10.32
2022-10-14T21:12:39.187Z,10.48
2022-10-14T21:15:06.251Z,11.13
2022-10-14T21:17:32.866Z,10.80
2022-10-14T21:20:02.686Z,9.93
2022-10-14T21:22:29.428Z,10.30
2022-10-14T21:24:56.054Z,11.43
2022-10-14T21:29:49.925Z,9.88
2022-10-14T21:32:16.629Z,10.63
2022-10-14T21:34:43.253Z,9.35
2022-10-14T21:37:09.945Z,9.65
2022-10-14T21:39:36.528Z,9.25
2022-10-14T21:42:03.208Z,9.98
2022-10-14T21:44:29.863Z,10.40
2022-10-14T21:46:56.444Z,9.07
2022-10-14T21:49:23.217Z,9.73
2022-10-14T21:51:49.840Z,9.43
2022-10-14T21:54:16.453Z,8.68
2022-10-14T21:56:43.405Z,9.27
2022-10-14T21:59:11.568Z,8.98
2022-10-14T22:01:38.353Z,9.18
2022-10-14T22:04:06.385Z,8.75
2022-10-14T22:06:34.827Z,9.02
2022-10-14T22:09:03.728Z,9.35
2022-10-14T22:11:34.471Z,10.82
2022-10-14T22:14:03.374Z,9.48
2022-10-14T22:16:30.631Z,9.52
2022-10-14T22:19:00.275Z,9.75
2022-10-14T22:21:28.992Z,9.23
2022-10-14T22:23:55.981Z,10.45
2022-10-14T22:26:24.512Z,9.88
2022-10-14T22:29:02.250Z,10.70
2022-10-14T22:31:30.428Z,10.77
2022-10-14T22:33:58.297Z,9.88
2022-10-14T22:36:28.908Z,10.50
2022-10-14T22:38:56.803Z,11.75
2022-10-14T22:41:25.435Z,11.27
2022-10-14T22:43:54.655Z,11.02
2022-10-14T22:46:23.888Z,11.05
2022-10-14T22:48:56.250Z,9.02
2022-10-14T22:51:31.974Z,9.35
2022-10-14T22:53:59.021Z,9.43
2022-10-14T22:56:28.467Z,8.43
2022-10-14T22:58:56.973Z,8.63
2022-10-14T23:01:24.201Z,9.10
2022-10-14T23:03:50.828Z,8.90
2022-10-14T23:06:17.614Z,9.57
2022-10-14T23:08:44.412Z,8.95
2022-10-14T23:11:15.695Z,7.78
2022-10-14T23:13:42.821Z,9.52
2022-10-14T23:16:14.799Z,10.07
2022-10-14T23:21:18.256Z,10.85
2022-10-14T23:23:46.296Z,10.52
2022-10-14T23:26:15.068Z,10.80
2022-10-14T23:28:42.358Z,9.93
2022-10-14T23:31:11.351Z,10.88
2022-10-14T23:33:39.146Z,11.07
2022-10-14T23:36:07.372Z,9.10
2022-10-14T23:38:35.210Z,9.77
2022-10-14T23:41:03.292Z,9.55
2022-10-14T23:43:30.368Z,9.18
2022-10-14T23:45:57.107Z,9.48
2022-10-14T23:48:23.747Z,10.07
2022-10-14T23:50:50.784Z,9.32
2022-10-14T23:53:17.819Z,10.52
2022-10-14T23:55:44.973Z,9.18
2022-10-14T23:58:12.687Z,10.57
